Time;durP1;ratioP1;P1;durP2;ratioP2;P2;SDS_P1;SDS_P2;PMS_P1;PMS_P2;Temp;Humidity;BMP_temperature;BMP_pressure;BME280_temperature;BME280_humidity;BME280_pressure;Samples;Min_cycle;Max_cycle;Signal;HPM_P1;HPM_P2
2021/01/18 16:10:55;;;;;;;1999.90;999.90;;;0.80;99.90;;;;;;5079882;27;20606;-54
2021/01/18 16:13:20;;;;;;;1999.90;999.90;;;0.70;99.90;;;;;;5084646;28;20436;-54
2021/01/18 16:15:46;;;;;;;1999.90;999.90;;;0.70;99.90;;;;;;5077476;28;20204;-54
2021/01/18 16:18:12;;;;;;;1999.90;999.90;;;0.70;99.90;;;;;;5089499;28;20197;-54
2021/01/18 16:20:38;;;;;;;1999.90;999.90;;;0.80;99.90;;;;;;5093921;28;20230;-53
2021/01/18 16:23:03;;;;;;;1999.90;999.90;;;0.70;99.90;;;;;;5084256;28;20209;-54
2021/01/18 16:25:29;;;;;;;1999.90;999.90;;;0.70;99.90;;;;;;5081210;28;20207;-53
2021/01/18 16:27:55;;;;;;;1999.90;999.90;;;0.70;99.90;;;;;;5080951;28;20439;-53
2021/01/18 16:30:21;;;;;;;1999.90;999.90;;;0.70;99.90;;;;;;5083811;28;20207;-54
2021/01/18 16:32:47;;;;;;;1999.90;999.90;;;0.60;99.90;;;;;;5087857;28;20258;-54
2021/01/18 16:35:13;;;;;;;1999.90;999.90;;;0.60;99.90;;;;;;5084521;28;20828;-54
2021/01/18 16:37:43;;;;;;;1999.90;999.90;;;0.60;99.90;;;;;;5085777;28;20206;-52
2021/01/18 16:40:10;;;;;;;1999.90;999.90;;;0.60;99.90;;;;;;5084470;28;20431;-53
2021/01/18 16:42:36;;;;;;;1999.90;999.90;;;0.60;99.90;;;;;;5084815;28;20811;-52
2021/01/18 16:45:02;;;;;;;1999.90;999.90;;;0.60;99.90;;;;;;5084235;28;20512;-55
2021/01/18 16:47:27;;;;;;;1999.90;999.90;;;0.60;99.90;;;;;;5083347;28;20695;-53
2021/01/18 16:49:53;;;;;;;1999.90;999.90;;;0.60;99.90;;;;;;5085648;28;20467;-53
2021/01/18 16:52:19;;;;;;;1999.90;999.90;;;0.70;99.90;;;;;;5085299;28;20592;-53
2021/01/18 16:54:45;;;;;;;1999.90;999.90;;;0.60;99.90;;;;;;5083511;28;20183;-53
2021/01/18 16:57:11;;;;;;;1999.90;999.90;;;0.60;99.90;;;;;;5082998;28;20721;-53
2021/01/18 16:59:36;;;;;;;1999.90;999.90;;;0.60;99.90;;;;;;5080595;28;20429;-52
2021/01/18 17:02:06;;;;;;;1999.90;999.90;;;0.60;99.90;;;;;;5080181;28;20186;-54
2021/01/18 17:04:33;;;;;;;1999.90;999.90;;;0.60;99.90;;;;;;5083118;28;20664;-53
2021/01/18 17:07:00;;;;;;;1999.90;999.90;;;0.60;99.90;;;;;;5078763;28;20452;-53
2021/01/18 17:09:27;;;;;;;1999.90;999.90;;;0.60;99.90;;;;;;5078772;28;21074;-53
2021/01/18 17:11:54;;;;;;;1999.90;999.90;;;0.60;99.90;;;;;;5083531;28;20836;-53
2021/01/18 17:14:21;;;;;;;1999.90;999.90;;;0.60;99.90;;;;;;5081075;28;20520;-53
2021/01/18 17:16:57;;;;;;;1999.90;999.90;;;0.50;99.90;;;;;;5080053;28;20444;-53
2021/01/18 17:19:25;;;;;;;1999.90;999.90;;;0.50;99.90;;;;;;5081744;28;20434;-54
2021/01/18 17:21:55;;;;;;;1999.90;999.90;;;0.50;99.90;;;;;;5068352;28;20445;-53
2021/01/18 17:24:25;;;;;;;1999.90;999.90;;;0.50;99.90;;;;;;5068660;28;20418;-53
2021/01/18 17:26:52;;;;;;;1999.90;999.90;;;0.50;99.90;;;;;;5067067;28;20950;-53
2021/01/18 17:29:18;;;;;;;1999.90;999.90;;;0.50;99.90;;;;;;5067848;28;21029;-53
2021/01/18 17:31:45;;;;;;;1999.90;999.90;;;0.50;99.90;;;;;;5063116;28;20438;-54
2021/01/18 17:34:12;;;;;;;1999.90;999.90;;;0.50;99.90;;;;;;5067270;28;20421;-54
2021/01/18 17:36:38;;;;;;;1999.90;999.90;;;0.50;99.90;;;;;;5065336;28;20457;-54
2021/01/18 17:39:05;;;;;;;1999.90;999.90;;;0.50;99.90;;;;;;5070691;28;20488;-54
2021/01/18 17:41:32;;;;;;;1999.90;999.90;;;0.50;99.90;;;;;;5069074;28;20187;-57
2021/01/18 17:44:05;;;;;;;1999.90;999.90;;;0.50;99.90;;;;;;5069011;28;20447;-55
2021/01/18 17:46:33;;;;;;;1999.90;999.90;;;0.50;99.90;;;;;;5067827;28;20461;-55
2021/01/18 17:49:10;;;;;;;1999.90;999.90;;;0.50;99.90;;;;;;5068285;28;20465;-55
2021/01/18 17:51:37;;;;;;;1999.90;999.90;;;0.50;99.90;;;;;;5070188;28;20429;-55
2021/01/18 17:54:03;;;;;;;1999.90;999.90;;;0.50;99.90;;;;;;5070238;28;20468;-55
2021/01/18 17:56:30;;;;;;;1999.90;999.90;;;0.50;99.90;;;;;;5070060;28;20444;-55
2021/01/18 17:59:00;;;;;;;1999.90;999.90;;;0.60;99.90;;;;;;5069487;28;20441;-55
2021/01/18 18:01:36;;;;;;;1999.90;999.90;;;0.60;99.90;;;;;;5061107;28;20977;-54
2021/01/18 18:04:02;;;;;;;1999.90;999.90;;;0.60;99.90;;;;;;5064031;28;20535;-54
2021/01/18 18:06:33;;;;;;;1999.90;999.90;;;0.60;99.90;;;;;;5069276;28;20573;-54
2021/01/18 18:09:00;;;;;;;1999.90;999.90;;;0.60;99.90;;;;;;5062335;28;20533;-55
2021/01/18 18:11:26;;;;;;;1999.90;999.90;;;0.60;99.90;;;;;;5069852;28;20433;-55
2021/01/18 18:13:52;;;;;;;1999.90;999.90;;;0.70;99.90;;;;;;5070901;28;20415;-56
2021/01/18 18:16:23;;;;;;;1999.90;999.90;;;0.70;99.90;;;;;;5069923;28;20559;-56
2021/01/18 18:18:53;;;;;;;1999.90;999.90;;;0.60;99.90;;;;;;5067620;28;20416;-56
2021/01/18 18:21:32;;;;;;;1999.90;999.90;;;0.60;99.90;;;;;;5068866;28;20522;-56
2021/01/18 18:23:59;;;;;;;1999.90;999.90;;;0.60;99.90;;;;;;5068511;28;20454;-56
2021/01/18 18:26:29;;;;;;;1999.90;999.90;;;0.60;99.90;;;;;;5067923;28;20889;-56
2021/01/18 18:28:55;;;;;;;1999.90;999.90;;;0.70;99.90;;;;;;5069611;28;20458;-56
2021/01/18 18:31:21;;;;;;;1999.90;999.90;;;0.60;99.90;;;;;;5067994;28;20428;-56
2021/01/18 18:33:47;;;;;;;1999.90;999.90;;;0.70;99.90;;;;;;5064638;28;20841;-55
2021/01/18 18:36:13;;;;;;;1999.90;999.90;;;0.70;99.90;;;;;;5065969;28;20248;-56
2021/01/18 18:38:39;;;;;;;1999.90;999.90;;;0.70;99.90;;;;;;5064492;28;20503;-57
2021/01/18 18:41:08;;;;;;;1999.90;999.90;;;0.70;99.90;;;;;;5064156;28;20424;-56
2021/01/18 18:43:34;;;;;;;1999.90;999.90;;;0.70;99.90;;;;;;5064879;28;20429;-56
2021/01/18 18:46:00;;;;;;;1999.90;999.90;;;0.70;99.90;;;;;;5066445;28;20445;-56
2021/01/18 18:48:26;;;;;;;1999.90;999.90;;;0.60;99.90;;;;;;5064829;28;20261;-60
2021/01/18 18:50:51;;;;;;;1999.90;999.90;;;0.60;99.90;;;;;;5065259;28;20948;-56
2021/01/18 18:53:17;;;;;;;1999.90;999.90;;;0.70;99.90;;;;;;5066926;28;20195;-56
2021/01/18 18:55:43;;;;;;;1999.90;999.90;;;0.70;99.90;;;;;;5054265;28;20190;-56
2021/01/18 18:58:09;;;;;;;1999.90;999.90;;;0.70;99.90;;;;;;5070096;28;20191;-56
2021/01/18 19:00:34;;;;;;;1999.90;999.90;;;0.70;99.90;;;;;;5068987;28;20204;-56
2021/01/18 19:03:00;;;;;;;1999.90;999.90;;;0.70;99.90;;;;;;5070016;28;20761;-56
2021/01/18 19:05:26;;;;;;;1999.90;999.90;;;0.80;99.90;;;;;;5064998;28;20200;-56
2021/01/18 19:07:51;;;;;;;1999.90;999.90;;;0.70;99.90;;;;;;5063114;28;20255;-56
2021/01/18 19:10:17;;;;;;;1999.90;999.90;;;0.80;99.90;;;;;;5059798;28;20229;-56
2021/01/18 19:12:43;;;;;;;1999.90;999.90;;;0.70;99.90;;;;;;5062810;28;20182;-55
2021/01/18 19:15:09;;;;;;;1999.90;999.90;;;0.80;99.90;;;;;;5062648;28;20308;-55
2021/01/18 19:17:34;;;;;;;1999.90;999.90;;;0.80;99.90;;;;;;5066190;28;20212;-56
2021/01/18 19:20:00;;;;;;;1999.90;999.90;;;0.90;99.90;;;;;;5064629;28;20432;-55
2021/01/18 19:22:26;;;;;;;1999.90;999.90;;;0.90;99.90;;;;;;5065171;28;20188;-55
2021/01/18 19:24:51;;;;;;;1999.90;999.90;;;0.80;99.90;;;;;;5065551;28;20198;-55
2021/01/18 19:27:17;;;;;;;1999.90;999.90;;;0.80;99.90;;;;;;5060995;28;20214;-55
2021/01/18 19:29:43;;;;;;;1999.90;999.90;;;0.80;99.90;;;;;;5063177;28;20306;-57
2021/01/18 19:32:09;;;;;;;1999.90;999.90;;;0.80;99.90;;;;;;5061875;28;20231;-55
2021/01/18 19:34:35;;;;;;;1999.90;999.90;;;0.70;99.90;;;;;;5067772;28;20182;-55
2021/01/18 19:37:01;;;;;;;1999.90;999.90;;;0.70;99.90;;;;;;5066505;28;20449;-55
2021/01/18 19:39:28;;;;;;;1999.90;999.90;;;0.70;99.90;;;;;;5068236;28;20431;-55
2021/01/18 19:41:56;;;;;;;1999.90;999.90;;;0.70;99.90;;;;;;5065548;28;20833;-54
2021/01/18 19:44:27;;;;;;;1999.90;999.90;;;0.70;99.90;;;;;;5067535;28;20440;-53
2021/01/18 19:46:58;;;;;;;1999.90;999.90;;;0.70;99.90;;;;;;5066706;28;20835;-53
2021/01/18 19:49:24;;;;;;;1999.90;999.90;;;0.70;99.90;;;;;;5064309;28;20477;-53
2021/01/18 19:51:50;;;;;;;1999.90;999.90;;;0.70;99.90;;;;;;5064073;28;20861;-53
2021/01/18 19:54:19;;;;;;;1999.90;999.90;;;0.60;99.90;;;;;;5057785;28;20443;-53
2021/01/18 19:56:45;;;;;;;1999.90;999.90;;;0.60;99.90;;;;;;5063567;28;20457;-55
2021/01/18 19:59:18;;;;;;;1999.90;999.90;;;0.60;99.90;;;;;;5062480;28;20905;-52
2021/01/18 20:01:45;;;;;;;1999.90;999.90;;;0.50;99.90;;;;;;5061541;28;20566;-53
2021/01/18 20:04:11;;;;;;;1999.90;999.90;;;0.50;99.90;;;;;;5065266;28;20439;-53
2021/01/18 20:06:40;;;;;;;1999.90;999.90;;;0.50;99.90;;;;;;5060122;28;20444;-54
2021/01/18 20:09:07;;;;;;;1999.90;999.90;;;0.50;99.90;;;;;;5065135;28;20219;-53
2021/01/18 20:11:35;;;;;;;1999.90;999.90;;;0.40;99.90;;;;;;5065478;28;20440;-53
2021/01/18 20:14:01;;;;;;;1999.90;999.90;;;0.40;99.90;;;;;;5065608;28;20464;-52
2021/01/18 20:16:27;;;;;;;1999.90;999.90;;;0.40;99.90;;;;;;5065595;28;20460;-52
2021/01/18 20:18:58;;;;;;;1999.90;999.90;;;0.40;99.90;;;;;;5053145;28;20414;-52
2021/01/18 20:21:31;;;;;;;1999.90;999.90;;;0.50;99.90;;;;;;5062407;28;20856;-52
2021/01/18 20:23:59;;;;;;;1999.90;999.90;;;0.50;99.90;;;;;;5046961;28;20414;-52
2021/01/18 20:26:29;;;;;;;1999.90;999.90;;;0.50;99.90;;;;;;5061780;28;20465;-52
2021/01/18 20:28:55;;;;;;;1999.90;999.90;;;0.50;99.90;;;;;;5066718;28;20930;-52
2021/01/18 20:31:21;;;;;;;1999.90;999.90;;;0.50;99.90;;;;;;5064367;28;21028;-52
2021/01/18 20:33:47;;;;;;;1999.90;999.90;;;0.50;99.90;;;;;;5066823;28;20413;-51
2021/01/18 20:36:29;;;;;;;1999.90;999.90;;;0.50;99.90;;;;;;5063581;28;20219;-51
2021/01/18 20:38:56;;;;;;;1999.90;999.90;;;0.50;99.90;;;;;;5065800;28;20648;-51
2021/01/18 20:41:24;;;;;;;1999.90;999.90;;;0.50;99.90;;;;;;5066462;28;20457;-51
2021/01/18 20:43:50;;;;;;;1999.90;999.90;;;0.50;99.90;;;;;;5056608;28;20463;-51
2021/01/18 20:46:16;;;;;;;1999.90;999.90;;;0.50;99.90;;;;;;5066484;28;20938;-51
2021/01/18 20:48:44;;;;;;;1999.90;999.90;;;0.50;99.90;;;;;;5066624;28;20834;-51
2021/01/18 20:51:10;;;;;;;1999.90;999.90;;;0.50;99.90;;;;;;5066311;28;20442;-51
2021/01/18 20:53:35;;;;;;;1999.90;999.90;;;0.50;99.90;;;;;;5063915;28;20944;-51
2021/01/18 20:56:02;;;;;;;1999.90;999.90;;;0.50;99.90;;;;;;5066016;28;20209;-51
2021/01/18 20:58:28;;;;;;;1999.90;999.90;;;0.60;99.90;;;;;;5068923;28;20183;-51
2021/01/18 21:00:53;;;;;;;1999.90;999.90;;;0.50;99.90;;;;;;5067316;28;20441;-51
2021/01/18 21:03:20;;;;;;;1999.90;999.90;;;0.50;99.90;;;;;;5070194;28;20185;-51
2021/01/18 21:05:46;;;;;;;1999.90;999.90;;;0.50;99.90;;;;;;5067355;28;20399;-51
2021/01/18 21:08:12;;;;;;;1999.90;999.90;;;0.50;99.90;;;;;;5070601;28;20416;-51
2021/01/18 21:10:38;;;;;;;1999.90;999.90;;;0.60;99.90;;;;;;5068270;28;20478;-51
2021/01/18 21:13:04;;;;;;;1999.90;999.90;;;0.60;99.90;;;;;;5070256;28;20178;-51
2021/01/18 21:15:30;;;;;;;1999.90;999.90;;;0.60;99.90;;;;;;5068697;28;20193;-51
2021/01/18 21:17:56;;;;;;;1999.90;999.90;;;0.60;99.90;;;;;;5070012;28;20409;-50
2021/01/18 21:20:22;;;;;;;1999.90;999.90;;;0.60;99.90;;;;;;5069717;28;20422;-51
2021/01/18 21:22:48;;;;;;;1999.90;999.90;;;0.60;99.90;;;;;;5069991;28;20185;-51
2021/01/18 21:25:19;;;;;;;1999.90;999.90;;;0.60;99.90;;;;;;5068964;28;20925;-51
2021/01/18 21:27:46;;;;;;;1999.90;999.90;;;0.60;99.90;;;;;;5068670;28;20267;-51
2021/01/18 21:30:14;;;;;;;1999.90;999.90;;;0.60;99.90;;;;;;5068491;28;20866;-51
2021/01/18 21:32:40;;;;;;;1999.90;999.90;;;0.60;99.90;;;;;;5053151;28;20420;-52
2021/01/18 21:35:07;;;;;;;1999.90;999.90;;;0.60;99.90;;;;;;5068717;28;20440;-50
2021/01/18 21:37:38;;;;;;;1999.90;999.90;;;0.60;99.90;;;;;;5069820;28;20439;-50
2021/01/18 21:40:06;;;;;;;1999.90;999.90;;;0.60;99.90;;;;;;5067772;28;20874;-50
2021/01/18 21:42:32;;;;;;;1999.90;999.90;;;0.60;99.90;;;;;;5068855;28;20441;-51
2021/01/18 21:45:00;;;;;;;1999.90;999.90;;;0.60;99.90;;;;;;5068013;28;20526;-51
2021/01/18 21:47:29;;;;;;;1999.90;999.90;;;0.70;99.90;;;;;;5069884;28;20467;-51
2021/01/18 21:49:56;;;;;;;1999.90;999.90;;;0.70;99.90;;;;;;5066853;28;20604;-50
2021/01/18 21:52:22;;;;;;;1999.90;999.90;;;0.70;99.90;;;;;;5069951;28;20431;-51
2021/01/18 21:54:48;;;;;;;1999.90;999.90;;;0.60;99.90;;;;;;5065863;28;20928;-51
2021/01/18 21:57:14;;;;;;;1999.90;999.90;;;0.70;99.90;;;;;;5069039;28;20510;-51
2021/01/18 21:59:40;;;;;;;1999.90;999.90;;;0.70;99.90;;;;;;5067873;28;20685;-51
2021/01/18 22:02:06;;;;;;;1999.90;999.90;;;0.70;99.90;;;;;;5068646;28;20939;-51
2021/01/18 22:04:31;;;;;;;1999.90;999.90;;;0.70;99.90;;;;;;5067689;28;20229;-51
2021/01/18 22:06:57;;;;;;;1999.90;999.90;;;0.80;99.90;;;;;;5068932;28;20452;-51
2021/01/18 22:09:23;;;;;;;1999.90;999.90;;;0.70;99.90;;;;;;5068752;28;20321;-51
2021/01/18 22:11:48;;;;;;;1999.90;999.90;;;0.80;99.90;;;;;;5068279;28;20443;-57
2021/01/18 22:14:15;;;;;;;1999.90;999.90;;;0.80;99.90;;;;;;5068667;28;20182;-51
2021/01/18 22:16:41;;;;;;;1999.90;999.90;;;0.80;99.90;;;;;;5066495;28;20226;-51
2021/01/18 22:19:07;;;;;;;1999.90;999.90;;;0.80;99.90;;;;;;5068239;28;20479;-50
2021/01/18 22:21:32;;;;;;;1999.90;999.90;;;0.80;99.90;;;;;;5068048;28;20662;-51
2021/01/18 22:23:58;;;;;;;1999.90;999.90;;;0.80;99.90;;;;;;5069102;28;20434;-50
2021/01/18 22:26:25;;;;;;;1999.90;999.90;;;0.80;99.90;;;;;;5067177;28;20714;-51
2021/01/18 22:28:51;;;;;;;1999.90;999.90;;;0.80;99.90;;;;;;5069565;28;20413;-51
2021/01/18 22:31:17;;;;;;;1999.90;999.90;;;0.70;99.90;;;;;;5066106;28;20437;-51
2021/01/18 22:33:44;;;;;;;1999.90;999.90;;;0.70;99.90;;;;;;5068229;28;20436;-51
